createdAt,value
2018-11-25T00:03:33.827Z,100441.84
2018-11-25T00:07:37.889Z,100436.94
2018-11-25T00:11:41.902Z,100429.02
2018-11-25T00:15:45.931Z,100432.61
2018-11-25T00:19:49.946Z,100435.27
2018-11-25T00:23:53.881Z,100440.95
2018-11-25T00:27:57.821Z,100436.47
2018-11-25T00:32:01.802Z,100441.44
2018-11-25T00:36:06.078Z,100430.71
2018-11-25T00:40:13.967Z,100432.75
2018-11-25T00:44:17.953Z,100434.31
2018-11-25T00:48:21.853Z,100420.70
2018-11-25T00:52:25.788Z,100413.08
2018-11-25T00:56:29.754Z,100411.83
2018-11-25T01:00:33.733Z,100414.06
2018-11-25T01:04:37.782Z,100406.13
2018-11-25T01:08:41.761Z,100408.17
2018-11-25T01:12:45.946Z,100410.13
2018-11-25T01:16:49.941Z,100410.13
2018-11-25T01:20:54.132Z,100410.85
2018-11-25T01:24:58.055Z,100411.30
2018-11-25T01:29:01.994Z,100414.39
2018-11-25T01:33:06.151Z,100414.06
2018-11-25T01:37:10.081Z,100400.30
2018-11-25T01:41:14.038Z,100398.92
2018-11-25T01:45:18.422Z,100404.87
2018-11-25T01:49:22.647Z,100404.21
2018-11-25T01:53:26.335Z,100401.45
2018-11-25T01:57:30.335Z,100405.67
2018-11-25T02:01:34.319Z,100404.81
2018-11-25T02:05:38.305Z,100395.94
2018-11-25T02:09:42.337Z,100388.67
2018-11-25T02:13:46.341Z,100391.33
2018-11-25T02:17:50.371Z,100390.13
2018-11-25T02:21:54.289Z,100390.03
2018-11-25T02:25:58.317Z,100379.61
2018-11-25T02:30:02.345Z,100388.55
2018-11-25T02:34:06.582Z,100374.77
2018-11-25T02:38:10.611Z,100366.67
2018-11-25T02:42:14.522Z,100372.17
2018-11-25T02:46:18.525Z,100365.50
2018-11-25T02:50:23.702Z,100367.83
2018-11-25T02:54:27.807Z,100372.19
2018-11-25T02:58:31.866Z,100368.66
2018-11-25T03:02:35.862Z,100368.78
2018-11-25T03:06:39.927Z,100373.49
2018-11-25T03:10:43.954Z,100373.55
2018-11-25T03:14:47.946Z,100378.98
2018-11-25T03:18:52.006Z,100377.55
2018-11-25T03:22:55.969Z,100384.42
2018-11-25T03:27:00.088Z,100383.97
2018-11-25T03:31:04.062Z,100387.13
2018-11-25T03:35:09.316Z,100383.97
2018-11-25T03:39:13.395Z,100385.38
2018-11-25T03:43:17.405Z,100391.03
2018-11-25T03:47:21.356Z,100397.40
2018-11-25T03:51:25.409Z,100389.30
2018-11-25T03:55:29.451Z,100394.05
2018-11-25T03:59:33.431Z,100396.07
2018-11-25T04:03:37.453Z,100391.91
2018-11-25T04:07:41.466Z,100388.30
2018-11-25T04:11:46.485Z,100380.14
2018-11-25T04:15:49.509Z,100387.30
2018-11-25T04:19:53.504Z,100394.50
2018-11-25T04:23:57.411Z,100391.66
2018-11-25T04:28:01.463Z,100386.95
2018-11-25T04:32:05.412Z,100393.48
2018-11-25T04:36:09.374Z,100390.20
2018-11-25T04:40:16.107Z,100382.89
2018-11-25T04:44:20.047Z,100384.59
2018-11-25T04:48:24.067Z,100390.98
2018-11-25T04:52:28.067Z,100376.33
2018-11-25T04:56:32.092Z,100375.87
2018-11-25T05:00:36.123Z,100383.47
2018-11-25T05:04:40.214Z,100385.90
2018-11-25T05:08:44.343Z,100389.07
2018-11-25T05:12:48.398Z,100382.66
2018-11-25T05:16:52.343Z,100371.39
2018-11-25T05:20:56.291Z,100365.63
2018-11-25T05:25:00.214Z,100363.30
2018-11-25T05:29:04.187Z,100368.23
2018-11-25T05:33:08.127Z,100366.33
2018-11-25T05:37:12.074Z,100364.22
2018-11-25T05:41:16.023Z,100366.53
2018-11-25T05:45:20.442Z,100369.44
2018-11-25T05:49:24.485Z,100367.93
2018-11-25T05:53:28.511Z,100369.89
2018-11-25T05:57:32.538Z,100360.47
2018-11-25T06:01:36.563Z,100362.91
2018-11-25T06:05:40.556Z,100356.61
2018-11-25T06:09:44.599Z,100358.36
2018-11-25T06:13:48.652Z,100361.63
2018-11-25T06:17:52.659Z,100368.11
2018-11-25T06:21:56.598Z,100385.52
2018-11-25T06:26:00.563Z,100385.11
2018-11-25T06:30:05.237Z,100381.20
2018-11-25T06:34:09.193Z,100381.11
2018-11-25T06:38:13.177Z,100390.17
2018-11-25T06:42:17.215Z,100390.17
2018-11-25T06:46:21.157Z,100387.07
2018-11-25T06:50:25.129Z,100379.85
2018-11-25T06:54:29.175Z,100371.23
2018-11-25T06:58:33.188Z,100377.45
2018-11-25T07:02:37.209Z,100384.31
2018-11-25T07:06:41.224Z,100385.41
2018-11-25T07:10:45.227Z,100385.87
2018-11-25T07:14:49.246Z,100384.61
2018-11-25T07:18:53.219Z,100375.15
2018-11-25T07:22:57.188Z,100378.25
2018-11-25T07:27:01.265Z,100379.35
2018-11-25T07:31:06.232Z,100375.70
2018-11-25T07:35:10.205Z,100384.91
2018-11-25T07:39:15.041Z,100391.42
2018-11-25T07:43:18.987Z,100387.38
2018-11-25T07:47:22.982Z,100400.84
2018-11-25T07:51:26.980Z,100402.15
2018-11-25T07:55:31.030Z,100403.05
2018-11-25T07:59:35.046Z,100406.49
2018-11-25T08:03:39.096Z,100410.37
2018-11-25T08:07:43.088Z,100393.78
2018-11-25T08:13:11.539Z,100388.45
2018-11-25T08:17:15.519Z,100379.58
2018-11-25T08:21:19.520Z,100372.02
2018-11-25T08:25:23.493Z,100373.07
2018-11-25T08:29:27.513Z,100366.27
2018-11-25T08:33:31.463Z,100367.44
2018-11-25T08:37:35.423Z,100366.08
2018-11-25T08:41:39.457Z,100369.54
2018-11-25T08:45:43.447Z,100372.86
2018-11-25T08:49:47.504Z,100370.69
2018-11-25T08:53:51.519Z,100375.98
2018-11-25T08:57:55.678Z,100380.10
2018-11-25T09:01:59.644Z,100387.61
2018-11-25T09:06:03.687Z,100390.83
2018-11-25T09:10:14.739Z,100393.27
2018-11-25T09:14:18.798Z,100399.36
2018-11-25T09:18:22.819Z,100401.88
2018-11-25T09:22:26.767Z,100397.29
2018-11-25T09:26:30.732Z,100403.98
2018-11-25T09:30:34.747Z,100399.95
2018-11-25T09:34:38.688Z,100385.84
2018-11-25T09:38:42.743Z,100378.58
2018-11-25T09:42:46.680Z,100379.07
2018-11-25T09:46:50.635Z,100373.66
2018-11-25T09:50:54.593Z,100368.02
2018-11-25T09:54:58.619Z,100366.67
2018-11-25T09:59:02.641Z,100372.15
2018-11-25T10:03:07.784Z,100368.03
2018-11-25T10:07:11.827Z,100368.84
2018-11-25T10:11:15.908Z,100367.91
2018-11-25T10:15:21.868Z,100373.77
2018-11-25T10:19:26.091Z,100376.98
2018-11-25T10:23:30.132Z,100369.39
2018-11-25T10:27:34.099Z,100367.91
2018-11-25T10:31:38.071Z,100369.13
2018-11-25T10:35:42.109Z,100360.71
2018-11-25T10:39:46.065Z,100367.62
2018-11-25T10:43:50.036Z,100355.98
2018-11-25T10:47:54.211Z,100358.59
2018-11-25T10:51:58.204Z,100361.11
2018-11-25T10:56:02.223Z,100348.86
2018-11-25T11:00:19.342Z,100346.49
2018-11-25T11:04:28.670Z,100348.89
2018-11-25T11:08:32.787Z,100348.84
2018-11-25T11:12:36.826Z,100353.94
2018-11-25T11:16:40.920Z,100352.31
2018-11-25T11:20:44.870Z,100347.50
2018-11-25T11:24:48.860Z,100349.14
2018-11-25T11:28:52.888Z,100348.94
2018-11-25T11:32:56.819Z,100347.41
2018-11-25T11:37:00.777Z,100347.74
2018-11-25T11:41:04.759Z,100346.20
2018-11-25T11:45:10.883Z,100342.40
2018-11-25T11:49:14.975Z,100346.64
2018-11-25T11:53:19.036Z,100344.03
2018-11-25T11:57:23.048Z,100345.92
2018-11-25T12:01:27.064Z,100339.22
2018-11-25T12:05:31.095Z,100342.68
2018-11-25T12:09:35.089Z,100336.48
2018-11-25T12:13:39.138Z,100328.66
2018-11-25T12:17:43.154Z,100332.51
2018-11-25T12:21:47.189Z,100325.25
2018-11-25T12:25:51.142Z,100331.68
2018-11-25T12:29:55.047Z,100336.71
2018-11-25T12:33:59.119Z,100334.17
2018-11-25T12:38:03.707Z,100331.77
2018-11-25T12:42:07.691Z,100328.24
2018-11-25T12:46:11.729Z,100324.16
2018-11-25T12:50:17.787Z,100326.14
2018-11-25T12:54:21.740Z,100322.47
2018-11-25T12:58:25.746Z,100316.41
2018-11-25T13:02:29.793Z,100312.03
2018-11-25T13:06:33.819Z,100298.94
2018-11-25T13:10:37.794Z,100293.20
2018-11-25T13:14:41.806Z,100296.55
2018-11-25T13:18:45.834Z,100286.16
2018-11-25T13:22:49.774Z,100289.17
2018-11-25T13:26:53.771Z,100294.45
2018-11-25T13:30:57.793Z,100291.96
2018-11-25T13:35:01.739Z,100286.38
2018-11-25T13:39:08.914Z,100270.78
2018-11-25T13:43:12.963Z,100272.00
2018-11-25T13:47:16.992Z,100268.75
2018-11-25T13:51:21.030Z,100261.03
2018-11-25T13:55:27.251Z,100274.14
2018-11-25T13:59:31.392Z,100275.72
2018-11-25T14:03:38.395Z,100277.30
2018-11-25T14:07:42.370Z,100277.83
2018-11-25T14:11:46.351Z,100267.28
2018-11-25T14:15:50.435Z,100265.64
2018-11-25T14:19:54.389Z,100264.47
2018-11-25T14:23:58.503Z,100264.16
2018-11-25T14:28:06.032Z,100272.89
2018-11-25T14:32:10.111Z,100270.86
2018-11-25T14:36:14.160Z,100271.41
2018-11-25T14:40:19.267Z,100271.47
2018-11-25T14:44:23.224Z,100268.58
2018-11-25T14:48:27.324Z,100270.87
2018-11-25T14:52:31.411Z,100265.34
2018-11-25T14:56:35.473Z,100266.25
2018-11-25T15:00:39.543Z,100268.39
2018-11-25T15:04:43.588Z,100271.29
2018-11-25T15:08:47.577Z,100267.10
2018-11-25T15:12:51.775Z,100269.25
2018-11-25T15:16:55.833Z,100261.64
2018-11-25T15:20:59.818Z,100269.77
2018-11-25T15:25:03.842Z,100262.16
2018-11-25T15:29:07.808Z,100258.52
2018-11-25T15:33:11.815Z,100254.33
2018-11-25T15:37:15.819Z,100257.79
2018-11-25T15:41:19.735Z,100247.94
2018-11-25T15:45:23.795Z,100246.57
2018-11-25T15:49:27.764Z,100250.30
2018-11-25T15:53:31.832Z,100250.81
2018-11-25T15:57:35.843Z,100244.53
2018-11-25T16:01:39.938Z,100247.20
2018-11-25T16:05:45.839Z,100234.19
2018-11-25T16:09:49.911Z,100234.25
2018-11-25T16:13:53.918Z,100230.18
2018-11-25T16:17:58.016Z,100226.87
2018-11-25T16:22:01.993Z,100224.11
2018-11-25T16:26:10.099Z,100232.67
2018-11-25T16:30:14.509Z,100238.16
2018-11-25T16:34:18.468Z,100229.73
2018-11-25T16:38:22.575Z,100232.16
2018-11-25T16:42:26.499Z,100237.89
2018-11-25T16:46:30.707Z,100247.30
2018-11-25T16:50:34.998Z,100244.23
2018-11-25T16:54:39.054Z,100248.15
2018-11-25T16:58:43.058Z,100265.56
2018-11-25T17:02:47.037Z,100245.48
2018-11-25T17:06:52.244Z,100251.09
2018-11-25T17:10:56.272Z,100241.34
2018-11-25T17:15:00.326Z,100244.81
2018-11-25T17:19:04.332Z,100243.50
2018-11-25T17:23:09.011Z,100251.73
2018-11-25T17:27:13.038Z,100249.63
2018-11-25T17:31:17.088Z,100237.55
2018-11-25T17:35:27.708Z,100251.13
2018-11-25T17:39:31.696Z,100250.21
2018-11-25T17:43:35.622Z,100251.91
2018-11-25T17:47:39.707Z,100249.36
2018-11-25T17:51:43.820Z,100234.70
2018-11-25T17:55:47.881Z,100240.70
2018-11-25T17:59:51.947Z,100228.52
2018-11-25T18:03:56.077Z,100232.34
2018-11-25T18:08:00.233Z,100238.16
2018-11-25T18:12:04.251Z,100235.49
2018-11-25T18:16:10.065Z,100224.14
2018-11-25T18:20:14.047Z,100234.70
2018-11-25T18:24:18.024Z,100230.64
2018-11-25T18:28:22.106Z,100253.61
2018-11-25T18:32:26.092Z,100244.93
2018-11-25T18:36:30.131Z,100238.02
2018-11-25T18:40:34.187Z,100247.14
2018-11-25T18:44:38.254Z,100252.17
2018-11-25T18:48:44.671Z,100238.34
2018-11-25T18:52:51.259Z,100232.88
2018-11-25T18:56:55.313Z,100236.13
2018-11-25T19:01:24.528Z,100231.18
2018-11-25T19:05:28.665Z,100240.31
2018-11-25T19:09:32.792Z,100229.36
2018-11-25T19:13:36.876Z,100242.13
2018-11-25T19:17:40.912Z,100240.44
2018-11-25T19:21:44.887Z,100244.23
2018-11-25T19:25:48.844Z,100250.69
2018-11-25T19:29:52.888Z,100236.85
2018-11-25T19:33:56.879Z,100245.53
2018-11-25T19:38:00.951Z,100232.03
2018-11-25T19:42:05.095Z,100227.91
2018-11-25T19:46:09.050Z,100226.93
2018-11-25T19:50:22.625Z,100225.69
2018-11-25T19:54:26.659Z,100216.22
2018-11-25T19:58:30.740Z,100214.34
2018-11-25T20:02:34.698Z,100232.78
2018-11-25T20:06:38.776Z,100241.34
2018-11-25T20:10:42.809Z,100231.03
2018-11-25T20:14:46.832Z,100237.95
2018-11-25T20:18:50.861Z,100235.79
2018-11-25T20:22:55.214Z,100235.22
2018-11-25T20:27:04.371Z,100229.88
2018-11-25T20:31:08.364Z,100245.14
2018-11-25T20:35:12.436Z,100248.66
2018-11-25T20:39:22.003Z,100241.56
2018-11-25T20:43:26.099Z,100236.70
2018-11-25T20:47:30.138Z,100236.65
2018-11-25T20:51:39.643Z,100232.34
2018-11-25T20:55:43.682Z,100237.61
2018-11-25T20:59:47.764Z,100231.30
2018-11-25T21:03:51.788Z,100228.12
2018-11-25T21:07:55.807Z,100224.72
2018-11-25T21:11:59.845Z,100221.98
2018-11-25T21:16:03.988Z,100224.99
2018-11-25T21:20:13.257Z,100220.29
2018-11-25T21:24:17.328Z,100221.53
2018-11-25T21:28:21.344Z,100215.34
2018-11-25T21:32:25.350Z,100221.41
2018-11-25T21:41:04.040Z,100224.87
2018-11-25T21:45:10.543Z,100218.64
2018-11-25T21:49:14.592Z,100230.00
2018-11-25T21:53:18.674Z,100218.52
2018-11-25T21:57:22.763Z,100224.92
2018-11-25T22:01:26.871Z,100232.30
2018-11-25T22:05:30.951Z,100238.77
2018-11-25T22:09:35.020Z,100233.87
2018-11-25T22:13:39.078Z,100226.38
2018-11-25T22:17:43.135Z,100228.53
2018-11-25T22:21:47.122Z,100224.16
2018-11-25T22:25:51.209Z,100233.69
2018-11-25T22:29:55.310Z,100229.77
2018-11-25T22:33:59.313Z,100227.06
2018-11-25T22:38:03.341Z,100227.13
2018-11-25T22:42:07.366Z,100236.47
2018-11-25T22:46:11.343Z,100235.95
2018-11-25T22:50:17.539Z,100246.79
2018-11-25T22:54:21.559Z,100239.74
2018-11-25T22:58:25.551Z,100237.53
2018-11-25T23:02:29.634Z,100237.01
2018-11-25T23:06:45.077Z,100233.48
2018-11-25T23:10:49.137Z,100239.62
2018-11-25T23:14:53.358Z,100243.08
2018-11-25T23:18:57.340Z,100239.09
2018-11-25T23:23:01.309Z,100238.70
2018-11-25T23:27:05.522Z,100242.53
2018-11-25T23:31:09.505Z,100246.05
2018-11-25T23:35:18.694Z,100242.13
2018-11-25T23:39:22.671Z,100238.81
2018-11-25T23:43:26.656Z,100238.42
2018-11-25T23:47:30.690Z,100237.57
2018-11-25T23:51:34.701Z,100228.75
2018-11-25T23:55:38.758Z,100227.78
2018-11-25T23:59:42.837Z,100220.80
